Charlevoix, MI

12:58 PM EDT on October 20, 2017 (GMT -0400)
Charlevoix Municipal

Weather History for KCVX - September, 2014

Change the Weather History Date:

Sunday, September 21, 2014

  Actual Average Record
Temperature  
Mean Temperature 54 °F -  
Max Temperature 59 °F 72 °F 80 °F (2004)
Min Temperature 49 °F 59 °F 39 °F (2006)
Degree Days  
Heating Degree Days 11    
Growing Degree Days 4 (Base 50)    
Moisture  
Dew Point 50 °F    
Average Humidity 87    
Maximum Humidity 100    
Minimum Humidity 70    
Precipitation  
Precipitation 0.00 in - - ()
Sea Level Pressure  
Sea Level Pressure 29.83 in    
Wind  
Wind Speed 10 mph (North)    
Max Wind Speed 21 mph    
Max Gust Speed 31 mph    
Visibility 9 miles    
Events Rain    
Averages and records for this station are not official NWS values.
T = Trace of Precipitation, MM = Missing Value Source: NWS Daily Summary

Daily Weather History Graph

Daily Weather History Graph

Search for Another Location

Airport or City:

Trip Planner

Search our weather history database for the weather conditions in past years. The results will help you decide how hot, cold, wet, or windy it might be!

Date:

Astronomy

Sep. 21, 2014 Rise Set
Actual Time 7:26 AM EDT 7:40 PM EDT
Civil Twilight 6:57 AM EDT 8:09 PM EDT
Nautical Twilight 6:22 AM EDT 8:44 PM EDT
Astronomical Twilight 5:47 AM EDT 9:20 PM EDT
Moon 4:54 AM EDT (9/21) 6:20 PM EDT (9/21)
Length of Visible Light 13h 12m
Length of Day
12h 13m
Waning Crescent, 6% of the Moon is Illuminated
Sep 21
Waning Crescent
Sep 24
New
Oct 1
First Quarter
Oct 8
Full
Oct 15
Last Quarter

Hourly Weather History & Observations

Time (EDT) Temp. Dew Point Humidity Pressure Visibility Wind Dir Wind Speed Gust Speed Precip Events Conditions
12:35 AM 59.4 °F 58.8 °F 98% 29.69 in 10.0 mi Calm Calm - N/A   Overcast
1:14 AM 59.5 °F 58.6 °F 97% 29.69 in 10.0 mi Calm Calm - N/A   Overcast
1:35 AM 59.4 °F 58.1 °F 96% 29.68 in 10.0 mi NNE 5.8 mph - N/A   Overcast
1:55 AM 59.2 °F 57.9 °F 96% 29.67 in 10.0 mi NE 5.8 mph - N/A   Mostly Cloudy
2:14 AM 58.6 °F 57.7 °F 97% 29.66 in 10.0 mi NNE 5.8 mph - N/A   Scattered Clouds
2:35 AM 58.6 °F 57.9 °F 97% 29.64 in 10.0 mi NNE 4.6 mph - N/A Rain Light Rain
2:54 AM 59.0 °F 58.1 °F 97% 29.66 in 10.0 mi NW 11.5 mph 19.6 mph N/A Rain Light Rain
3:14 AM 58.1 °F 57.0 °F 96% 29.65 in 7.0 mi NW 10.4 mph 18.4 mph N/A Rain Light Rain
3:35 AM 57.9 °F 57.2 °F 97% 29.65 in 7.0 mi NNW 5.8 mph - N/A Rain Heavy Rain
3:54 AM 57.6 °F 57.4 °F 99% 29.64 in 4.0 mi East 4.6 mph - N/A Rain Heavy Rain
4:14 AM 57.4 °F 57.4 °F 100% 29.64 in 4.0 mi Calm Calm - N/A Rain Heavy Rain
4:35 AM 57.2 °F 57.2 °F 100% 29.62 in 5.0 mi ENE 8.1 mph - N/A Rain Rain
4:54 AM 57.2 °F 57.2 °F 100% 29.61 in 7.0 mi ENE 9.2 mph - N/A Rain Rain
5:15 AM 57.2 °F 57.2 °F 100% 29.62 in 7.0 mi NE 4.6 mph - N/A Rain Rain
5:35 AM 57.0 °F 57.0 °F 100% 29.62 in 4.0 mi NNE 5.8 mph - N/A Rain Heavy Rain
5:54 AM 57.2 °F 57.2 °F 100% 29.64 in 7.0 mi NNW 4.6 mph - N/A Rain Heavy Rain
6:15 AM 57.6 °F 57.6 °F 100% 29.64 in 7.0 mi NNW 8.1 mph - N/A Rain Heavy Rain
6:35 AM 57.7 °F 57.7 °F 100% 29.64 in 7.0 mi North 8.1 mph - N/A Rain Rain
6:54 AM 57.4 °F 57.4 °F 100% 29.62 in 10.0 mi North 15.0 mph 18.4 mph N/A Rain Rain
7:15 AM 56.8 °F 56.8 °F 100% 29.62 in 10.0 mi North 10.4 mph 16.1 mph N/A Rain Light Rain
7:35 AM 57.2 °F 57.2 °F 100% 29.61 in 10.0 mi NNE 15.0 mph 20.7 mph N/A   Mostly Cloudy
7:54 AM 57.4 °F 57.4 °F 100% 29.62 in 10.0 mi NNE 9.2 mph 18.4 mph N/A Rain Light Rain
8:15 AM 57.7 °F 57.7 °F 100% 29.63 in 10.0 mi North 10.4 mph - N/A Rain Light Rain
8:35 AM 57.2 °F 57.2 °F 100% 29.64 in 10.0 mi NNE 16.1 mph 20.7 mph N/A Rain Light Rain
8:54 AM 56.3 °F 56.3 °F 100% 29.65 in 7.0 mi NNE 15.0 mph 21.9 mph N/A Rain Rain
9:15 AM 56.3 °F 56.3 °F 100% 29.67 in 5.0 mi NNE 11.5 mph - N/A Rain Rain
9:35 AM 55.8 °F 55.6 °F 99% 29.68 in 7.0 mi NNE 12.7 mph 19.6 mph N/A Rain Light Rain
9:54 AM 55.0 °F 54.5 °F 98% 29.69 in 10.0 mi NNE 10.4 mph 19.6 mph N/A Rain Light Rain
10:15 AM 54.5 °F 53.8 °F 97% 29.71 in 7.0 mi NNE 17.3 mph 25.3 mph N/A Rain Rain
10:35 AM 53.6 °F 52.9 °F 97% 29.73 in 5.0 mi NNE 19.6 mph 27.6 mph N/A Rain Rain
11:15 AM 52.5 °F 51.6 °F 97% 29.76 in 4.0 mi North 18.4 mph 29.9 mph N/A Rain Rain
11:34 AM 51.8 °F 49.8 °F 93% 29.77 in 10.0 mi NNE 20.7 mph 26.5 mph N/A Rain Light Rain
11:54 AM 51.6 °F 49.3 °F 92% 29.79 in 10.0 mi NNE 15.0 mph 23.0 mph N/A Rain Light Rain
12:15 PM 52.2 °F 49.5 °F 91% 29.80 in 10.0 mi NNE 15.0 mph 20.7 mph N/A Rain Light Rain
12:34 PM 52.7 °F 49.3 °F 88% 29.81 in 10.0 mi North 16.1 mph 26.5 mph N/A Rain Light Rain
12:54 PM 53.8 °F 49.6 °F 86% 29.82 in 10.0 mi North 17.3 mph 25.3 mph N/A   Overcast
1:15 PM 54.5 °F 49.3 °F 83% 29.82 in 10.0 mi North 18.4 mph 26.5 mph N/A   Overcast
1:34 PM 54.5 °F 50.0 °F 85% 29.83 in 10.0 mi NNW 17.3 mph 24.2 mph N/A   Overcast
1:55 PM 53.8 °F 48.6 °F 82% 29.85 in 10.0 mi NNW 18.4 mph 27.6 mph N/A   Overcast
2:15 PM 53.2 °F 48.9 °F 85% 29.86 in 10.0 mi NNW 16.1 mph 24.2 mph N/A   Overcast
2:34 PM 52.9 °F 48.2 °F 84% 29.87 in 10.0 mi NNW 18.4 mph 24.2 mph N/A   Overcast
2:55 PM 51.8 °F 46.4 °F 82% 29.89 in 10.0 mi NNW 18.4 mph 27.6 mph N/A   Overcast
3:15 PM 51.4 °F 46.2 °F 82% 29.90 in 10.0 mi NNW 18.4 mph 25.3 mph N/A   Overcast
3:34 PM 50.9 °F 45.7 °F 82% 29.91 in 10.0 mi NNW 17.3 mph 24.2 mph N/A   Overcast
3:55 PM 50.5 °F 44.6 °F 80% 29.92 in 10.0 mi NNW 17.3 mph 25.3 mph N/A   Overcast
4:15 PM 50.2 °F 44.2 °F 80% 29.93 in 10.0 mi NNW 16.1 mph 24.2 mph N/A   Overcast
4:34 PM 50.2 °F 42.8 °F 76% 29.94 in 10.0 mi NNW 18.4 mph 26.5 mph N/A   Overcast
4:55 PM 50.2 °F 42.6 °F 75% 29.95 in 10.0 mi NNW 16.1 mph 24.2 mph N/A   Overcast
5:15 PM 50.5 °F 42.8 °F 75% 29.96 in 10.0 mi North 19.6 mph 26.5 mph N/A   Overcast
5:34 PM 50.2 °F 41.2 °F 71% 29.97 in 10.0 mi NNW 20.7 mph 31.1 mph N/A   Overcast
5:55 PM 50.0 °F 41.2 °F 72% 29.98 in 10.0 mi North 17.3 mph 27.6 mph N/A   Overcast
6:14 PM 50.0 °F 40.5 °F 70% 30.00 in 10.0 mi NNW 15.0 mph 25.3 mph N/A   Overcast
6:34 PM 49.5 °F 40.1 °F 70% 30.01 in 10.0 mi NNW 16.1 mph 27.6 mph N/A   Overcast
6:55 PM 49.3 °F 40.6 °F 72% 30.01 in 10.0 mi NNW 17.3 mph 26.5 mph N/A   Overcast
7:14 PM 49.6 °F 41.5 °F 74% 30.02 in 10.0 mi NNW 15.0 mph 25.3 mph N/A   Overcast
7:34 PM 49.6 °F 40.5 °F 71% 30.03 in 10.0 mi NNW 16.1 mph 27.6 mph N/A   Overcast
7:55 PM 49.3 °F 41.0 °F 73% 30.04 in 10.0 mi NNW 17.3 mph 29.9 mph N/A   Overcast
8:14 PM 49.6 °F 40.5 °F 71% 30.05 in 10.0 mi North 18.4 mph 27.6 mph N/A   Overcast
8:34 PM 49.8 °F 41.2 °F 72% 30.06 in 10.0 mi NNW 17.3 mph 25.3 mph N/A   Overcast
8:55 PM 50.0 °F 40.6 °F 70% 30.07 in 10.0 mi North 15.0 mph 25.3 mph N/A   Overcast
9:14 PM 49.5 °F 40.5 °F 71% 30.07 in 10.0 mi North 16.1 mph 26.5 mph N/A   Overcast
9:34 PM 50.0 °F 40.6 °F 70% 30.08 in 10.0 mi North 15.0 mph 25.3 mph N/A   Overcast
9:55 PM 49.8 °F 40.8 °F 71% 30.08 in 10.0 mi NNW 16.1 mph 24.2 mph N/A   Overcast
10:14 PM 50.0 °F 40.6 °F 70% 30.08 in 10.0 mi NNW 17.3 mph 25.3 mph N/A   Overcast
10:35 PM 50.0 °F 40.8 °F 71% 30.09 in 10.0 mi North 16.1 mph 23.0 mph N/A   Overcast
10:55 PM 50.0 °F 40.8 °F 71% 30.09 in 10.0 mi NNW 12.7 mph 23.0 mph N/A   Overcast
11:14 PM 50.0 °F 41.5 °F 73% 30.10 in 10.0 mi NNW 13.8 mph - N/A   Overcast
11:35 PM 50.0 °F 41.7 °F 73% 30.10 in 10.0 mi North 13.8 mph 21.9 mph N/A   Overcast
11:55 PM 50.2 °F 41.0 °F 71% 30.10 in 10.0 mi NNW 15.0 mph 19.6 mph N/A   Overcast